sensor_id;sensor_type;location;lat;lon;timestamp;P1;durP1;ratioP1;P2;durP2;ratioP2
49101;SDS011;34913;47.520;19.186;2022-12-18T00:01:20;44.95;;;19.27;;
49101;SDS011;34913;47.520;19.186;2022-12-18T00:03:47;44.63;;;19.63;;
49101;SDS011;34913;47.520;19.186;2022-12-18T00:06:13;48.92;;;20.27;;
49101;SDS011;34913;47.520;19.186;2022-12-18T00:08:40;44.92;;;18.30;;
49101;SDS011;34913;47.520;19.186;2022-12-18T00:11:10;47.58;;;20.50;;
49101;SDS011;34913;47.520;19.186;2022-12-18T00:13:37;44.03;;;19.02;;
49101;SDS011;34913;47.520;19.186;2022-12-18T00:16:03;44.25;;;19.17;;
49101;SDS011;34913;47.520;19.186;2022-12-18T00:18:30;45.15;;;19.52;;
49101;SDS011;34913;47.520;19.186;2022-12-18T00:20:58;46.38;;;19.23;;
49101;SDS011;34913;47.520;19.186;2022-12-18T00:23:25;43.88;;;19.77;;
49101;SDS011;34913;47.520;19.186;2022-12-18T00:25:51;44.60;;;19.27;;
49101;SDS011;34913;47.520;19.186;2022-12-18T00:28:16;45.45;;;18.73;;
49101;SDS011;34913;47.520;19.186;2022-12-18T00:30:42;42.97;;;18.75;;
49101;SDS011;34913;47.520;19.186;2022-12-18T00:33:07;44.35;;;18.55;;
49101;SDS011;34913;47.520;19.186;2022-12-18T00:35:33;43.42;;;19.45;;
49101;SDS011;34913;47.520;19.186;2022-12-18T00:37:58;42.53;;;18.42;;
49101;SDS011;34913;47.520;19.186;2022-12-18T00:40:23;42.58;;;18.17;;
49101;SDS011;34913;47.520;19.186;2022-12-18T00:42:49;47.40;;;19.05;;
49101;SDS011;34913;47.520;19.186;2022-12-18T00:45:20;43.10;;;19.63;;
49101;SDS011;34913;47.520;19.186;2022-12-18T00:47:46;38.90;;;17.52;;
49101;SDS011;34913;47.520;19.186;2022-12-18T00:50:11;40.08;;;17.45;;
49101;SDS011;34913;47.520;19.186;2022-12-18T00:52:37;42.67;;;18.75;;
49101;SDS011;34913;47.520;19.186;2022-12-18T00:55:05;44.92;;;18.30;;
49101;SDS011;34913;47.520;19.186;2022-12-18T00:57:31;46.60;;;18.67;;
49101;SDS011;34913;47.520;19.186;2022-12-18T00:59:56;43.00;;;19.00;;
49101;SDS011;34913;47.520;19.186;2022-12-18T01:02:22;44.33;;;18.38;;
49101;SDS011;34913;47.520;19.186;2022-12-18T01:04:47;42.40;;;18.35;;
49101;SDS011;34913;47.520;19.186;2022-12-18T01:07:13;44.10;;;18.05;;
49101;SDS011;34913;47.520;19.186;2022-12-18T01:09:38;47.78;;;19.33;;
49101;SDS011;34913;47.520;19.186;2022-12-18T01:12:04;45.08;;;18.75;;
49101;SDS011;34913;47.520;19.186;2022-12-18T01:14:30;40.30;;;18.13;;
49101;SDS011;34913;47.520;19.186;2022-12-18T01:16:55;41.88;;;18.75;;
49101;SDS011;34913;47.520;19.186;2022-12-18T01:19:20;43.78;;;18.80;;
49101;SDS011;34913;47.520;19.186;2022-12-18T01:21:46;47.20;;;18.42;;
49101;SDS011;34913;47.520;19.186;2022-12-18T01:24:11;43.25;;;17.42;;
49101;SDS011;34913;47.520;19.186;2022-12-18T01:26:37;39.83;;;17.75;;
49101;SDS011;34913;47.520;19.186;2022-12-18T01:29:02;41.45;;;18.33;;
49101;SDS011;34913;47.520;19.186;2022-12-18T01:31:31;44.92;;;18.45;;
49101;SDS011;34913;47.520;19.186;2022-12-18T01:34:00;38.97;;;17.52;;
49101;SDS011;34913;47.520;19.186;2022-12-18T01:38:53;45.65;;;19.35;;
49101;SDS011;34913;47.520;19.186;2022-12-18T01:41:24;45.55;;;19.20;;
49101;SDS011;34913;47.520;19.186;2022-12-18T01:43:52;42.67;;;19.00;;
49101;SDS011;34913;47.520;19.186;2022-12-18T01:46:19;43.90;;;18.75;;
49101;SDS011;34913;47.520;19.186;2022-12-18T01:48:47;42.25;;;18.40;;
49101;SDS011;34913;47.520;19.186;2022-12-18T01:51:15;40.83;;;17.20;;
49101;SDS011;34913;47.520;19.186;2022-12-18T01:53:41;42.05;;;17.52;;
49101;SDS011;34913;47.520;19.186;2022-12-18T01:56:08;42.47;;;18.63;;
49101;SDS011;34913;47.520;19.186;2022-12-18T02:01:11;38.65;;;17.58;;
49101;SDS011;34913;47.520;19.186;2022-12-18T02:03:36;38.08;;;17.45;;
49101;SDS011;34913;47.520;19.186;2022-12-18T02:08:59;42.40;;;17.98;;
49101;SDS011;34913;47.520;19.186;2022-12-18T02:19:50;38.95;;;17.35;;
49101;SDS011;34913;47.520;19.186;2022-12-18T02:25:43;42.28;;;18.55;;
49101;SDS011;34913;47.520;19.186;2022-12-18T02:27:53;43.10;;;17.73;;
49101;SDS011;34913;47.520;19.186;2022-12-18T02:30:23;41.42;;;17.45;;
49101;SDS011;34913;47.520;19.186;2022-12-18T02:32:49;44.58;;;18.40;;
49101;SDS011;34913;47.520;19.186;2022-12-18T02:35:21;45.05;;;18.27;;
49101;SDS011;34913;47.520;19.186;2022-12-18T02:37:49;40.25;;;17.25;;
49101;SDS011;34913;47.520;19.186;2022-12-18T02:40:15;40.28;;;18.08;;
49101;SDS011;34913;47.520;19.186;2022-12-18T02:42:42;38.70;;;17.40;;
49101;SDS011;34913;47.520;19.186;2022-12-18T02:45:07;40.78;;;17.80;;
49101;SDS011;34913;47.520;19.186;2022-12-18T02:47:34;44.72;;;18.25;;
49101;SDS011;34913;47.520;19.186;2022-12-18T02:52:43;41.10;;;18.23;;
49101;SDS011;34913;47.520;19.186;2022-12-18T03:00:51;41.45;;;18.05;;
49101;SDS011;34913;47.520;19.186;2022-12-18T03:03:24;45.00;;;18.27;;
49101;SDS011;34913;47.520;19.186;2022-12-18T03:05:59;42.58;;;18.52;;
49101;SDS011;34913;47.520;19.186;2022-12-18T03:08:30;41.28;;;18.27;;
49101;SDS011;34913;47.520;19.186;2022-12-18T03:11:02;40.95;;;17.83;;
49101;SDS011;34913;47.520;19.186;2022-12-18T03:13:37;45.15;;;18.00;;
49101;SDS011;34913;47.520;19.186;2022-12-18T03:16:06;45.63;;;19.17;;
49101;SDS011;34913;47.520;19.186;2022-12-18T03:18:37;41.70;;;17.90;;
49101;SDS011;34913;47.520;19.186;2022-12-18T03:21:07;42.25;;;18.20;;
49101;SDS011;34913;47.520;19.186;2022-12-18T03:23:40;43.72;;;18.23;;
49101;SDS011;34913;47.520;19.186;2022-12-18T03:26:12;45.42;;;17.92;;
49101;SDS011;34913;47.520;19.186;2022-12-18T03:28:45;44.60;;;18.20;;
49101;SDS011;34913;47.520;19.186;2022-12-18T03:31:15;39.38;;;17.95;;
49101;SDS011;34913;47.520;19.186;2022-12-18T03:33:55;42.72;;;18.27;;
49101;SDS011;34913;47.520;19.186;2022-12-18T03:36:24;44.28;;;18.98;;
49101;SDS011;34913;47.520;19.186;2022-12-18T03:38:50;39.78;;;17.95;;
49101;SDS011;34913;47.520;19.186;2022-12-18T03:41:32;43.40;;;18.77;;
49101;SDS011;34913;47.520;19.186;2022-12-18T03:52:26;42.72;;;18.48;;
49101;SDS011;34913;47.520;19.186;2022-12-18T03:54:55;40.95;;;17.52;;
49101;SDS011;34913;47.520;19.186;2022-12-18T03:57:24;44.17;;;18.23;;
49101;SDS011;34913;47.520;19.186;2022-12-18T03:59:57;43.88;;;19.40;;
49101;SDS011;34913;47.520;19.186;2022-12-18T04:02:26;45.08;;;19.83;;
49101;SDS011;34913;47.520;19.186;2022-12-18T04:04:53;45.95;;;19.63;;
49101;SDS011;34913;47.520;19.186;2022-12-18T04:07:23;46.90;;;20.15;;
49101;SDS011;34913;47.520;19.186;2022-12-18T04:09:49;46.00;;;19.38;;
49101;SDS011;34913;47.520;19.186;2022-12-18T04:12:18;42.25;;;19.23;;
49101;SDS011;34913;47.520;19.186;2022-12-18T04:14:44;46.80;;;19.05;;
49101;SDS011;34913;47.520;19.186;2022-12-18T04:17:09;45.13;;;19.30;;
49101;SDS011;34913;47.520;19.186;2022-12-18T04:19:35;48.25;;;19.80;;
49101;SDS011;34913;47.520;19.186;2022-12-18T04:22:00;43.25;;;19.48;;
49101;SDS011;34913;47.520;19.186;2022-12-18T04:24:26;49.28;;;19.63;;
49101;SDS011;34913;47.520;19.186;2022-12-18T04:26:51;43.85;;;18.98;;
49101;SDS011;34913;47.520;19.186;2022-12-18T04:29:17;45.38;;;18.73;;
49101;SDS011;34913;47.520;19.186;2022-12-18T04:31:42;48.45;;;19.80;;
49101;SDS011;34913;47.520;19.186;2022-12-18T04:34:08;44.58;;;19.58;;
49101;SDS011;34913;47.520;19.186;2022-12-18T04:36:33;44.97;;;19.25;;
49101;SDS011;34913;47.520;19.186;2022-12-18T04:38:59;45.38;;;18.80;;
49101;SDS011;34913;47.520;19.186;2022-12-18T04:41:24;48.03;;;19.75;;
49101;SDS011;34913;47.520;19.186;2022-12-18T04:43:49;45.85;;;19.40;;
49101;SDS011;34913;47.520;19.186;2022-12-18T04:46:15;49.55;;;20.00;;
49101;SDS011;34913;47.520;19.186;2022-12-18T04:48:40;47.95;;;20.23;;
49101;SDS011;34913;47.520;19.186;2022-12-18T04:51:05;49.30;;;20.52;;
49101;SDS011;34913;47.520;19.186;2022-12-18T04:53:32;48.13;;;20.20;;
49101;SDS011;34913;47.520;19.186;2022-12-18T04:56:04;56.70;;;23.23;;
49101;SDS011;34913;47.520;19.186;2022-12-18T04:58:31;54.55;;;21.70;;
49101;SDS011;34913;47.520;19.186;2022-12-18T05:00:56;56.65;;;22.75;;
49101;SDS011;34913;47.520;19.186;2022-12-18T05:03:22;59.20;;;23.35;;
49101;SDS011;34913;47.520;19.186;2022-12-18T05:05:50;55.13;;;23.23;;
49101;SDS011;34913;47.520;19.186;2022-12-18T05:08:16;57.38;;;23.98;;
49101;SDS011;34913;47.520;19.186;2022-12-18T05:10:42;59.65;;;23.35;;
49101;SDS011;34913;47.520;19.186;2022-12-18T05:13:07;53.78;;;22.67;;
49101;SDS011;34913;47.520;19.186;2022-12-18T05:15:32;55.10;;;23.30;;
49101;SDS011;34913;47.520;19.186;2022-12-18T05:17:58;53.88;;;22.40;;
49101;SDS011;34913;47.520;19.186;2022-12-18T05:20:24;49.83;;;22.05;;
49101;SDS011;34913;47.520;19.186;2022-12-18T05:22:51;50.10;;;21.40;;
49101;SDS011;34913;47.520;19.186;2022-12-18T05:25:17;50.30;;;21.92;;
49101;SDS011;34913;47.520;19.186;2022-12-18T05:27:43;47.88;;;19.83;;
49101;SDS011;34913;47.520;19.186;2022-12-18T05:30:10;47.58;;;20.40;;
49101;SDS011;34913;47.520;19.186;2022-12-18T05:32:36;47.75;;;20.10;;
49101;SDS011;34913;47.520;19.186;2022-12-18T05:35:02;45.63;;;19.58;;
49101;SDS011;34913;47.520;19.186;2022-12-18T05:37:28;48.25;;;20.85;;
49101;SDS011;34913;47.520;19.186;2022-12-18T05:39:53;61.80;;;22.58;;
49101;SDS011;34913;47.520;19.186;2022-12-18T05:42:19;63.28;;;23.35;;
49101;SDS011;34913;47.520;19.186;2022-12-18T05:44:45;80.63;;;27.67;;
49101;SDS011;34913;47.520;19.186;2022-12-18T05:47:10;99.90;;;32.95;;
49101;SDS011;34913;47.520;19.186;2022-12-18T05:49:35;70.90;;;27.05;;
49101;SDS011;34913;47.520;19.186;2022-12-18T05:52:01;61.15;;;23.40;;
49101;SDS011;34913;47.520;19.186;2022-12-18T05:54:27;69.15;;;25.27;;
49101;SDS011;34913;47.520;19.186;2022-12-18T05:56:52;63.17;;;23.48;;
49101;SDS011;34913;47.520;19.186;2022-12-18T05:59:18;72.60;;;26.50;;
49101;SDS011;34913;47.520;19.186;2022-12-18T06:01:44;71.20;;;26.13;;
49101;SDS011;34913;47.520;19.186;2022-12-18T06:04:10;60.80;;;24.05;;
49101;SDS011;34913;47.520;19.186;2022-12-18T06:06:35;61.50;;;22.83;;
49101;SDS011;34913;47.520;19.186;2022-12-18T06:09:01;70.35;;;27.10;;
49101;SDS011;34913;47.520;19.186;2022-12-18T06:11:33;88.38;;;31.48;;
49101;SDS011;34913;47.520;19.186;2022-12-18T06:13:59;64.43;;;25.67;;
49101;SDS011;34913;47.520;19.186;2022-12-18T06:16:26;55.75;;;22.65;;
49101;SDS011;34913;47.520;19.186;2022-12-18T06:19:01;48.58;;;20.30;;
49101;SDS011;34913;47.520;19.186;2022-12-18T06:21:28;45.28;;;20.23;;
49101;SDS011;34913;47.520;19.186;2022-12-18T06:23:54;47.80;;;19.58;;
49101;SDS011;34913;47.520;19.186;2022-12-18T06:26:20;56.80;;;22.45;;
49101;SDS011;34913;47.520;19.186;2022-12-18T06:28:46;64.40;;;27.73;;
49101;SDS011;34913;47.520;19.186;2022-12-18T06:31:12;58.03;;;24.48;;
49101;SDS011;34913;47.520;19.186;2022-12-18T06:33:37;54.55;;;22.75;;
49101;SDS011;34913;47.520;19.186;2022-12-18T06:36:04;54.13;;;23.73;;
49101;SDS011;34913;47.520;19.186;2022-12-18T06:38:32;53.65;;;24.20;;
49101;SDS011;34913;47.520;19.186;2022-12-18T06:40:58;58.13;;;23.35;;
49101;SDS011;34913;47.520;19.186;2022-12-18T06:43:24;55.78;;;24.15;;
49101;SDS011;34913;47.520;19.186;2022-12-18T06:45:49;53.92;;;23.05;;
49101;SDS011;34913;47.520;19.186;2022-12-18T06:48:20;55.85;;;24.48;;
49101;SDS011;34913;47.520;19.186;2022-12-18T06:50:46;61.20;;;24.77;;
49101;SDS011;34913;47.520;19.186;2022-12-18T06:53:11;52.15;;;22.13;;
49101;SDS011;34913;47.520;19.186;2022-12-18T06:55:37;52.70;;;23.40;;
49101;SDS011;34913;47.520;19.186;2022-12-18T06:58:02;56.38;;;24.83;;
49101;SDS011;34913;47.520;19.186;2022-12-18T07:00:28;52.08;;;22.95;;
49101;SDS011;34913;47.520;19.186;2022-12-18T07:02:53;57.13;;;23.63;;
49101;SDS011;34913;47.520;19.186;2022-12-18T07:05:19;49.97;;;22.08;;
49101;SDS011;34913;47.520;19.186;2022-12-18T07:07:44;49.53;;;20.70;;
49101;SDS011;34913;47.520;19.186;2022-12-18T07:10:09;52.67;;;22.67;;
49101;SDS011;34913;47.520;19.186;2022-12-18T07:12:35;53.08;;;22.73;;
49101;SDS011;34913;47.520;19.186;2022-12-18T07:15:00;57.95;;;23.33;;
49101;SDS011;34913;47.520;19.186;2022-12-18T07:17:26;55.13;;;23.42;;
49101;SDS011;34913;47.520;19.186;2022-12-18T07:19:51;60.70;;;25.73;;
49101;SDS011;34913;47.520;19.186;2022-12-18T07:22:17;57.95;;;24.10;;
49101;SDS011;34913;47.520;19.186;2022-12-18T07:24:42;53.47;;;22.98;;
49101;SDS011;34913;47.520;19.186;2022-12-18T07:27:07;55.78;;;23.83;;
49101;SDS011;34913;47.520;19.186;2022-12-18T07:29:33;52.67;;;22.75;;
49101;SDS011;34913;47.520;19.186;2022-12-18T07:31:59;60.15;;;25.63;;
49101;SDS011;34913;47.520;19.186;2022-12-18T07:34:24;55.20;;;23.38;;
49101;SDS011;34913;47.520;19.186;2022-12-18T07:36:49;55.83;;;24.38;;
49101;SDS011;34913;47.520;19.186;2022-12-18T07:39:15;62.60;;;25.58;;
49101;SDS011;34913;47.520;19.186;2022-12-18T07:41:40;60.75;;;25.60;;
49101;SDS011;34913;47.520;19.186;2022-12-18T07:44:11;87.93;;;39.67;;
49101;SDS011;34913;47.520;19.186;2022-12-18T07:46:37;71.13;;;32.38;;
49101;SDS011;34913;47.520;19.186;2022-12-18T07:49:03;65.38;;;28.20;;
49101;SDS011;34913;47.520;19.186;2022-12-18T07:51:29;63.22;;;26.88;;
49101;SDS011;34913;47.520;19.186;2022-12-18T07:53:54;64.60;;;27.00;;
49101;SDS011;34913;47.520;19.186;2022-12-18T07:56:20;55.97;;;23.00;;
49101;SDS011;34913;47.520;19.186;2022-12-18T07:58:46;61.03;;;25.35;;
49101;SDS011;34913;47.520;19.186;2022-12-18T08:01:11;57.63;;;24.05;;
49101;SDS011;34913;47.520;19.186;2022-12-18T08:03:38;59.60;;;24.08;;
49101;SDS011;34913;47.520;19.186;2022-12-18T08:06:05;57.75;;;24.63;;
49101;SDS011;34913;47.520;19.186;2022-12-18T08:08:32;58.08;;;24.55;;
49101;SDS011;34913;47.520;19.186;2022-12-18T08:10:58;55.47;;;24.13;;
49101;SDS011;34913;47.520;19.186;2022-12-18T08:13:24;54.17;;;23.60;;
49101;SDS011;34913;47.520;19.186;2022-12-18T08:15:59;52.40;;;22.50;;
49101;SDS011;34913;47.520;19.186;2022-12-18T08:18:29;55.58;;;22.98;;
49101;SDS011;34913;47.520;19.186;2022-12-18T08:20:57;55.38;;;23.95;;
49101;SDS011;34913;47.520;19.186;2022-12-18T08:23:22;53.67;;;23.25;;
49101;SDS011;34913;47.520;19.186;2022-12-18T08:25:47;52.22;;;23.10;;
49101;SDS011;34913;47.520;19.186;2022-12-18T08:28:13;54.35;;;22.20;;
49101;SDS011;34913;47.520;19.186;2022-12-18T08:30:41;53.70;;;22.88;;
49101;SDS011;34913;47.520;19.186;2022-12-18T08:33:07;54.40;;;22.35;;
49101;SDS011;34913;47.520;19.186;2022-12-18T08:35:36;51.35;;;22.33;;
49101;SDS011;34913;47.520;19.186;2022-12-18T08:38:01;51.88;;;21.92;;
49101;SDS011;34913;47.520;19.186;2022-12-18T08:40:27;52.67;;;23.25;;
49101;SDS011;34913;47.520;19.186;2022-12-18T08:42:53;55.58;;;25.00;;
49101;SDS011;34913;47.520;19.186;2022-12-18T08:45:36;48.13;;;21.40;;
49101;SDS011;34913;47.520;19.186;2022-12-18T08:48:02;48.80;;;20.60;;
49101;SDS011;34913;47.520;19.186;2022-12-18T08:50:27;46.70;;;20.25;;
49101;SDS011;34913;47.520;19.186;2022-12-18T08:52:53;46.40;;;19.80;;
49101;SDS011;34913;47.520;19.186;2022-12-18T08:55:18;45.75;;;19.10;;
49101;SDS011;34913;47.520;19.186;2022-12-18T08:57:47;45.00;;;19.70;;
49101;SDS011;34913;47.520;19.186;2022-12-18T09:00:14;41.88;;;17.80;;
49101;SDS011;34913;47.520;19.186;2022-12-18T09:02:39;42.83;;;18.55;;
49101;SDS011;34913;47.520;19.186;2022-12-18T09:05:05;43.58;;;17.85;;
49101;SDS011;34913;47.520;19.186;2022-12-18T09:07:30;42.17;;;18.38;;
49101;SDS011;34913;47.520;19.186;2022-12-18T09:09:56;41.38;;;18.55;;
49101;SDS011;34913;47.520;19.186;2022-12-18T09:12:21;43.00;;;18.80;;
49101;SDS011;34913;47.520;19.186;2022-12-18T09:14:47;53.55;;;21.95;;
49101;SDS011;34913;47.520;19.186;2022-12-18T09:17:12;47.80;;;21.05;;
49101;SDS011;34913;47.520;19.186;2022-12-18T09:19:37;52.38;;;22.52;;
49101;SDS011;34913;47.520;19.186;2022-12-18T09:22:03;46.83;;;19.90;;
49101;SDS011;34913;47.520;19.186;2022-12-18T09:24:28;50.10;;;20.75;;
49101;SDS011;34913;47.520;19.186;2022-12-18T09:26:53;50.22;;;22.27;;
49101;SDS011;34913;47.520;19.186;2022-12-18T09:29:22;54.42;;;22.98;;
49101;SDS011;34913;47.520;19.186;2022-12-18T09:31:48;45.38;;;19.95;;
49101;SDS011;34913;47.520;19.186;2022-12-18T09:34:14;43.42;;;19.10;;
49101;SDS011;34913;47.520;19.186;2022-12-18T09:36:40;43.00;;;19.40;;
49101;SDS011;34913;47.520;19.186;2022-12-18T09:39:06;41.83;;;18.75;;
49101;SDS011;34913;47.520;19.186;2022-12-18T09:47:09;41.70;;;20.08;;
49101;SDS011;34913;47.520;19.186;2022-12-18T09:49:45;44.45;;;19.70;;
49101;SDS011;34913;47.520;19.186;2022-12-18T09:52:19;44.72;;;19.98;;
49101;SDS011;34913;47.520;19.186;2022-12-18T09:54:55;44.13;;;19.25;;
49101;SDS011;34913;47.520;19.186;2022-12-18T09:57:23;45.90;;;20.63;;
49101;SDS011;34913;47.520;19.186;2022-12-18T09:59:57;45.92;;;19.73;;
49101;SDS011;34913;47.520;19.186;2022-12-18T10:02:31;44.88;;;20.13;;
49101;SDS011;34913;47.520;19.186;2022-12-18T10:07:55;42.90;;;18.63;;
49101;SDS011;34913;47.520;19.186;2022-12-18T10:10:31;43.20;;;19.50;;
49101;SDS011;34913;47.520;19.186;2022-12-18T10:21:10;44.00;;;20.17;;
49101;SDS011;34913;47.520;19.186;2022-12-18T10:26:59;41.40;;;19.13;;
49101;SDS011;34913;47.520;19.186;2022-12-18T10:29:37;40.17;;;19.85;;
49101;SDS011;34913;47.520;19.186;2022-12-18T10:32:03;43.15;;;19.23;;
49101;SDS011;34913;47.520;19.186;2022-12-18T10:34:28;45.70;;;20.58;;
49101;SDS011;34913;47.520;19.186;2022-12-18T10:36:54;46.00;;;20.08;;
49101;SDS011;34913;47.520;19.186;2022-12-18T10:39:20;43.70;;;19.90;;
49101;SDS011;34913;47.520;19.186;2022-12-18T10:41:51;46.33;;;19.83;;
49101;SDS011;34913;47.520;19.186;2022-12-18T10:44:23;45.88;;;19.88;;
49101;SDS011;34913;47.520;19.186;2022-12-18T10:46:53;46.85;;;20.08;;
49101;SDS011;34913;47.520;19.186;2022-12-18T10:51:51;43.47;;;19.75;;
49101;SDS011;34913;47.520;19.186;2022-12-18T10:54:28;45.58;;;20.23;;
49101;SDS011;34913;47.520;19.186;2022-12-18T10:57:13;41.85;;;18.88;;
49101;SDS011;34913;47.520;19.186;2022-12-18T11:00:18;43.88;;;20.13;;
49101;SDS011;34913;47.520;19.186;2022-12-18T11:02:55;45.90;;;19.67;;
49101;SDS011;34913;47.520;19.186;2022-12-18T11:07:58;39.08;;;18.73;;
49101;SDS011;34913;47.520;19.186;2022-12-18T11:10:31;44.08;;;20.38;;
49101;SDS011;34913;47.520;19.186;2022-12-18T11:13:19;42.53;;;19.50;;
49101;SDS011;34913;47.520;19.186;2022-12-18T11:15:47;45.95;;;21.23;;
49101;SDS011;34913;47.520;19.186;2022-12-18T11:20:51;36.17;;;17.70;;
49101;SDS011;34913;47.520;19.186;2022-12-18T11:23:19;43.42;;;20.08;;
49101;SDS011;34913;47.520;19.186;2022-12-18T11:25:56;38.45;;;17.20;;
49101;SDS011;34913;47.520;19.186;2022-12-18T11:34:00;38.85;;;17.20;;
49101;SDS011;34913;47.520;19.186;2022-12-18T11:36:28;38.55;;;18.25;;
49101;SDS011;34913;47.520;19.186;2022-12-18T11:39:04;108.63;;;41.60;;
49101;SDS011;34913;47.520;19.186;2022-12-18T11:41:48;43.67;;;21.15;;
49101;SDS011;34913;47.520;19.186;2022-12-18T11:50:12;35.25;;;17.27;;
49101;SDS011;34913;47.520;19.186;2022-12-18T11:52:42;42.85;;;19.23;;
49101;SDS011;34913;47.520;19.186;2022-12-18T11:55:12;41.03;;;20.00;;
49101;SDS011;34913;47.520;19.186;2022-12-18T11:57:55;45.65;;;20.73;;
49101;SDS011;34913;47.520;19.186;2022-12-18T12:00:51;46.20;;;23.08;;
49101;SDS011;34913;47.520;19.186;2022-12-18T12:07:04;43.85;;;20.38;;
49101;SDS011;34913;47.520;19.186;2022-12-18T12:12:32;35.30;;;17.35;;
49101;SDS011;34913;47.520;19.186;2022-12-18T12:17:52;39.57;;;18.97;;
49101;SDS011;34913;47.520;19.186;2022-12-18T12:20:25;56.75;;;24.48;;
49101;SDS011;34913;47.520;19.186;2022-12-18T12:23:00;37.42;;;17.25;;
49101;SDS011;34913;47.520;19.186;2022-12-18T12:39:22;28.80;;;14.35;;
49101;SDS011;34913;47.520;19.186;2022-12-18T12:41:53;28.80;;;13.75;;
49101;SDS011;34913;47.520;19.186;2022-12-18T12:44:40;30.10;;;14.65;;
49101;SDS011;34913;47.520;19.186;2022-12-18T12:50:11;27.95;;;14.20;;
49101;SDS011;34913;47.520;19.186;2022-12-18T12:52:51;29.00;;;14.68;;
49101;SDS011;34913;47.520;19.186;2022-12-18T12:55:26;31.20;;;15.02;;
49101;SDS011;34913;47.520;19.186;2022-12-18T12:58:02;30.60;;;15.32;;
49101;SDS011;34913;47.520;19.186;2022-12-18T13:00:49;28.48;;;14.13;;
49101;SDS011;34913;47.520;19.186;2022-12-18T13:09:13;28.95;;;14.50;;
49101;SDS011;34913;47.520;19.186;2022-12-18T13:11:39;30.55;;;14.80;;
49101;SDS011;34913;47.520;19.186;2022-12-18T13:17:13;29.45;;;14.07;;
49101;SDS011;34913;47.520;19.186;2022-12-18T13:19:47;29.98;;;12.73;;
49101;SDS011;34913;47.520;19.186;2022-12-18T13:22:25;24.55;;;13.15;;
49101;SDS011;34913;47.520;19.186;2022-12-18T13:24:56;25.58;;;11.88;;
49101;SDS011;34913;47.520;19.186;2022-12-18T13:35:41;21.23;;;11.23;;
49101;SDS011;34913;47.520;19.186;2022-12-18T13:38:25;21.02;;;11.20;;
49101;SDS011;34913;47.520;19.186;2022-12-18T13:41:00;22.08;;;10.73;;
49101;SDS011;34913;47.520;19.186;2022-12-18T13:46:44;22.33;;;11.95;;
49101;SDS011;34913;47.520;19.186;2022-12-18T13:51:23;24.85;;;13.52;;
49101;SDS011;34913;47.520;19.186;2022-12-18T13:53:54;29.40;;;14.60;;
49101;SDS011;34913;47.520;19.186;2022-12-18T13:56:24;29.13;;;14.30;;
49101;SDS011;34913;47.520;19.186;2022-12-18T13:59:12;29.08;;;15.32;;
49101;SDS011;34913;47.520;19.186;2022-12-18T14:01:48;30.40;;;14.95;;
49101;SDS011;34913;47.520;19.186;2022-12-18T14:12:21;33.72;;;15.82;;
49101;SDS011;34913;47.520;19.186;2022-12-18T14:17:52;32.25;;;16.55;;
49101;SDS011;34913;47.520;19.186;2022-12-18T14:20:24;33.92;;;16.95;;
49101;SDS011;34913;47.520;19.186;2022-12-18T14:22:51;33.10;;;16.30;;
49101;SDS011;34913;47.520;19.186;2022-12-18T14:25:21;33.78;;;16.77;;
49101;SDS011;34913;47.520;19.186;2022-12-18T14:30:36;35.47;;;16.50;;
49101;SDS011;34913;47.520;19.186;2022-12-18T14:33:13;33.30;;;16.15;;
49101;SDS011;34913;47.520;19.186;2022-12-18T14:35:51;36.50;;;16.88;;
49101;SDS011;34913;47.520;19.186;2022-12-18T14:38:30;37.70;;;17.17;;
49101;SDS011;34913;47.520;19.186;2022-12-18T14:40:58;37.47;;;16.50;;
49101;SDS011;34913;47.520;19.186;2022-12-18T14:43:34;35.00;;;16.45;;
49101;SDS011;34913;47.520;19.186;2022-12-18T14:46:02;36.25;;;17.70;;
49101;SDS011;34913;47.520;19.186;2022-12-18T14:48:51;37.78;;;17.85;;
49101;SDS011;34913;47.520;19.186;2022-12-18T14:51:21;36.22;;;17.95;;
49101;SDS011;34913;47.520;19.186;2022-12-18T14:53:54;37.85;;;18.02;;
49101;SDS011;34913;47.520;19.186;2022-12-18T14:56:21;39.80;;;19.40;;
49101;SDS011;34913;47.520;19.186;2022-12-18T14:58:48;39.00;;;18.77;;
49101;SDS011;34913;47.520;19.186;2022-12-18T15:09:39;44.05;;;22.10;;
49101;SDS011;34913;47.520;19.186;2022-12-18T15:15:43;52.20;;;23.63;;
49101;SDS011;34913;47.520;19.186;2022-12-18T15:23:20;74.78;;;32.17;;
49101;SDS011;34913;47.520;19.186;2022-12-18T15:25:58;79.00;;;35.13;;
49101;SDS011;34913;47.520;19.186;2022-12-18T15:31:00;98.47;;;40.85;;
49101;SDS011;34913;47.520;19.186;2022-12-18T15:33:35;96.68;;;41.58;;
49101;SDS011;34913;47.520;19.186;2022-12-18T15:36:04;83.75;;;38.75;;
49101;SDS011;34913;47.520;19.186;2022-12-18T15:38:33;80.15;;;36.08;;
49101;SDS011;34913;47.520;19.186;2022-12-18T15:40:59;85.00;;;35.75;;
49101;SDS011;34913;47.520;19.186;2022-12-18T15:43:25;84.18;;;36.25;;
49101;SDS011;34913;47.520;19.186;2022-12-18T15:45:59;79.45;;;34.45;;
49101;SDS011;34913;47.520;19.186;2022-12-18T15:48:29;75.18;;;34.08;;
49101;SDS011;34913;47.520;19.186;2022-12-18T15:50:55;78.75;;;32.28;;
49101;SDS011;34913;47.520;19.186;2022-12-18T15:53:23;74.38;;;32.92;;
49101;SDS011;34913;47.520;19.186;2022-12-18T15:55:50;84.28;;;33.75;;
49101;SDS011;34913;47.520;19.186;2022-12-18T15:58:51;72.47;;;33.13;;
49101;SDS011;34913;47.520;19.186;2022-12-18T16:01:16;68.72;;;31.85;;
49101;SDS011;34913;47.520;19.186;2022-12-18T16:03:43;75.85;;;34.08;;
49101;SDS011;34913;47.520;19.186;2022-12-18T16:06:08;74.55;;;33.63;;
49101;SDS011;34913;47.520;19.186;2022-12-18T16:08:34;71.72;;;32.30;;
49101;SDS011;34913;47.520;19.186;2022-12-18T16:11:00;71.07;;;31.95;;
49101;SDS011;34913;47.520;19.186;2022-12-18T16:13:26;63.92;;;29.73;;
49101;SDS011;34913;47.520;19.186;2022-12-18T16:15:51;65.80;;;29.73;;
49101;SDS011;34913;47.520;19.186;2022-12-18T16:18:16;69.13;;;29.95;;
49101;SDS011;34913;47.520;19.186;2022-12-18T16:20:42;65.72;;;30.40;;
49101;SDS011;34913;47.520;19.186;2022-12-18T16:23:07;70.55;;;31.98;;
49101;SDS011;34913;47.520;19.186;2022-12-18T16:25:33;73.30;;;31.08;;
49101;SDS011;34913;47.520;19.186;2022-12-18T16:27:58;65.07;;;30.02;;
49101;SDS011;34913;47.520;19.186;2022-12-18T16:30:25;65.70;;;29.85;;
49101;SDS011;34913;47.520;19.186;2022-12-18T16:32:53;63.38;;;29.40;;
49101;SDS011;34913;47.520;19.186;2022-12-18T16:35:19;63.28;;;28.77;;
49101;SDS011;34913;47.520;19.186;2022-12-18T16:37:45;59.33;;;28.17;;
49101;SDS011;34913;47.520;19.186;2022-12-18T16:40:12;61.42;;;29.55;;
49101;SDS011;34913;47.520;19.186;2022-12-18T16:42:40;65.18;;;30.95;;
49101;SDS011;34913;47.520;19.186;2022-12-18T16:45:07;61.10;;;31.23;;
49101;SDS011;34913;47.520;19.186;2022-12-18T16:47:34;69.07;;;31.80;;
49101;SDS011;34913;47.520;19.186;2022-12-18T16:49:59;66.70;;;32.33;;
49101;SDS011;34913;47.520;19.186;2022-12-18T16:52:25;68.13;;;32.13;;
49101;SDS011;34913;47.520;19.186;2022-12-18T16:54:51;70.32;;;30.92;;